Time;durP1;ratioP1;P1;durP2;ratioP2;P2;SDS_P1;SDS_P2;PMS_P1;PMS_P2;Temp;Humidity;BMP_temperature;BMP_pressure;BME280_temperature;BME280_humidity;BME280_pressure;Samples;Min_cycle;Max_cycle;Signal;HPM_P1;HPM_P2
2021/06/15 00:02:59;;;;;;;6.03;5.22;;;23.00;59.60;;;;;;10414375;28;20048;-57
2021/06/15 00:08:00;;;;;;;6.03;5.18;;;23.00;59.70;;;;;;10414857;28;20497;-56
2021/06/15 00:13:01;;;;;;;7.53;5.25;;;23.00;59.70;;;;;;10414481;28;20033;-57
2021/06/15 00:18:02;;;;;;;5.65;5.05;;;23.00;59.80;;;;;;10414274;28;20032;-57
2021/06/15 00:23:02;;;;;;;5.90;5.22;;;23.00;59.70;;;;;;10419398;28;20389;-57
2021/06/15 00:28:05;;;;;;;7.43;4.97;;;22.90;59.70;;;;;;10422242;28;20029;-57
2021/06/15 00:33:06;;;;;;;6.80;5.13;;;23.00;59.80;;;;;;10422166;28;20370;-57
2021/06/15 00:38:06;;;;;;;5.25;4.32;;;22.90;59.70;;;;;;10422058;28;20029;-57
2021/06/15 00:43:07;;;;;;;6.35;5.03;;;22.90;59.70;;;;;;10423992;28;20135;-57
2021/06/15 00:48:26;;;;;;;6.43;5.03;;;22.90;59.60;;;;;;10421875;28;20553;-57
2021/06/15 00:53:28;;;;;;;;;;;23.00;59.80;;;;;;10412264;28;20038;-57
2021/06/15 00:58:28;;;;;;;5.18;4.65;;;22.90;59.70;;;;;;10421242;28;19913;-57
2021/06/15 01:03:29;;;;;;;5.57;4.70;;;22.90;59.70;;;;;;10421016;28;20546;-57
2021/06/15 01:08:53;;;;;;;5.25;4.68;;;23.00;62.80;;;;;;10419838;28;20053;-57
2021/06/15 01:14:05;;;;;;;5.57;4.68;;;23.00;63.30;;;;;;10419659;28;20501;-56
2021/06/15 01:19:49;;;;;;;6.35;4.85;;;23.10;62.90;;;;;;10419537;28;20120;-57
2021/06/15 01:25:31;;;;;;;5.53;4.40;;;23.10;63.40;;;;;;10420083;28;20029;-57
2021/06/15 01:30:45;;;;;;;7.13;5.28;;;23.00;62.70;;;;;;10408039;28;20416;-57
2021/06/15 01:35:48;;;;;;;5.57;4.93;;;23.00;62.80;;;;;;10420013;28;20030;-57
2021/06/15 01:40:54;;;;;;;6.57;4.32;;;23.00;62.70;;;;;;10418622;28;20048;-57
2021/06/15 01:45:56;;;;;;;5.50;4.90;;;23.00;62.50;;;;;;10424941;28;20485;-57
2021/06/15 01:51:00;;;;;;;5.25;4.75;;;23.00;62.40;;;;;;10418429;28;20036;-57
2021/06/15 01:56:04;;;;;;;5.18;4.38;;;23.00;62.70;;;;;;10417689;28;20025;-57
2021/06/15 02:01:06;;;;;;;4.78;3.70;;;23.00;62.70;;;;;;10402334;28;20053;-57
2021/06/15 02:06:08;;;;;;;4.82;4.05;;;23.00;62.60;;;;;;10417663;28;20033;-55
2021/06/15 02:11:09;;;;;;;5.85;4.90;;;23.00;62.60;;;;;;10417254;28;20075;-57
2021/06/15 02:16:10;;;;;;;5.10;4.22;;;23.00;62.40;;;;;;10417408;28;20044;-58
2021/06/15 02:21:13;;;;;;;5.75;4.75;;;23.00;62.00;;;;;;10416786;28;20095;-57
2021/06/15 02:26:19;;;;;;;5.32;4.75;;;23.00;62.00;;;;;;10417935;28;20037;-57
2021/06/15 02:31:30;;;;;;;5.43;4.05;;;23.00;61.60;;;;;;10417821;28;20092;-57
2021/06/15 02:36:35;;;;;;;4.88;4.00;;;22.90;61.80;;;;;;10416523;28;20029;-57
2021/06/15 02:41:40;;;;;;;4.38;3.97;;;22.90;61.70;;;;;;10424106;28;20067;-57
2021/06/15 02:46:43;;;;;;;4.50;4.00;;;22.90;61.50;;;;;;10417176;28;20060;-57
2021/06/15 02:52:12;;;;;;;4.80;4.30;;;22.90;61.50;;;;;;10415846;28;20033;-57
2021/06/15 02:57:14;;;;;;;4.38;3.92;;;22.90;61.50;;;;;;10416017;28;20025;-57
2021/06/15 03:02:15;;;;;;;4.43;3.70;;;22.90;61.50;;;;;;10416755;28;20041;-57
2021/06/15 03:07:16;;;;;;;7.03;4.70;;;22.90;61.30;;;;;;10416428;28;20072;-57
2021/06/15 03:12:25;;;;;;;5.25;4.45;;;22.90;61.40;;;;;;10416145;28;20470;-57
2021/06/15 03:17:29;;;;;;;4.55;3.78;;;22.90;61.40;;;;;;10415144;28;20060;-57
2021/06/15 03:22:51;;;;;;;5.10;3.97;;;22.90;61.50;;;;;;10414551;28;20057;-57
2021/06/15 03:28:04;;;;;;;6.18;3.97;;;22.90;61.60;;;;;;10414416;28;20671;-57
2021/06/15 03:33:13;;;;;;;6.57;4.28;;;22.90;61.50;;;;;;10411989;28;20359;-57
2021/06/15 03:38:15;;;;;;;4.45;3.60;;;22.90;61.40;;;;;;10414957;28;20533;-57
2021/06/15 03:43:18;;;;;;;5.43;4.43;;;22.90;61.30;;;;;;10422489;28;20033;-57
2021/06/15 03:48:20;;;;;;;4.20;3.42;;;22.90;61.20;;;;;;10412653;28;20119;-57
2021/06/15 03:53:28;;;;;;;5.18;3.90;;;22.80;61.20;;;;;;10405236;28;20045;-57
2021/06/15 03:58:32;;;;;;;4.37;3.57;;;22.80;61.20;;;;;;10412641;28;20038;-57
2021/06/15 04:03:37;;;;;;;4.38;3.40;;;22.80;61.20;;;;;;10413621;28;20543;-57
2021/06/15 04:08:39;;;;;;;5.30;4.10;;;22.80;61.20;;;;;;10414509;28;20029;-58
2021/06/15 04:13:42;;;;;;;4.68;3.92;;;22.80;61.20;;;;;;10413186;28;20544;-57
2021/06/15 04:18:45;;;;;;;5.32;3.17;;;22.80;61.20;;;;;;10413500;28;20025;-57
2021/06/15 04:24:01;;;;;;;3.97;3.40;;;22.80;61.10;;;;;;10412682;28;20040;-57
2021/06/15 04:29:07;;;;;;;4.60;3.40;;;22.80;60.90;;;;;;10402182;28;20033;-57
2021/06/15 04:34:10;;;;;;;5.03;3.78;;;22.80;61.10;;;;;;10412520;28;20029;-58
2021/06/15 04:39:20;;;;;;;6.38;3.70;;;22.80;61.00;;;;;;10412799;28;20036;-57
2021/06/15 04:44:27;;;;;;;6.35;3.25;;;22.80;61.30;;;;;;10421113;28;20056;-57
2021/06/15 04:49:54;;;;;;;7.38;3.88;;;22.80;61.00;;;;;;10408423;28;20513;-57
2021/06/15 04:54:59;;;;;;;8.10;3.72;;;22.90;61.80;;;;;;10412258;28;20108;-57
2021/06/15 05:00:01;;;;;;;6.97;4.10;;;22.90;61.90;;;;;;10412200;28;20032;-54
2021/06/15 05:05:05;;;;;;;8.75;3.78;;;22.90;61.60;;;;;;10395324;28;20053;-57
2021/06/15 05:10:08;;;;;;;8.05;3.92;;;22.90;61.80;;;;;;10417667;28;20037;-56
2021/06/15 05:15:12;;;;;;;8.05;3.13;;;22.90;62.70;;;;;;10419698;28;20018;-56
2021/06/15 05:20:14;;;;;;;7.15;3.25;;;22.80;62.40;;;;;;10420480;28;20366;-56
2021/06/15 05:25:19;;;;;;;11.25;3.85;;;22.90;62.70;;;;;;10419151;28;20473;-57
2021/06/15 05:30:21;;;;;;;6.30;3.08;;;22.90;62.00;;;;;;10420286;28;20037;-57
2021/06/15 05:35:21;;;;;;;3.60;2.80;;;22.90;61.90;;;;;;10406769;28;20034;-58
2021/06/15 05:40:22;;;;;;;5.30;3.05;;;22.90;62.20;;;;;;10419361;28;20033;-58
2021/06/15 05:45:23;;;;;;;4.55;3.05;;;22.90;61.70;;;;;;10420959;28;20367;-58
2021/06/15 05:50:24;;;;;;;5.30;3.38;;;22.80;61.90;;;;;;10418442;28;20152;-58
2021/06/15 05:55:24;;;;;;;12.40;4.25;;;22.90;61.60;;;;;;10419537;28;20092;-57
2021/06/15 06:00:25;;;;;;;11.70;3.58;;;22.90;62.10;;;;;;10418494;28;20033;-57
2021/06/15 06:10:34;;;;;;;6.00;3.75;;;22.90;61.60;;;;;;10418825;28;20124;-57
2021/06/15 06:15:35;;;;;;;6.47;3.25;;;22.90;61.90;;;;;;10418296;28;20029;-58
2021/06/15 06:20:38;;;;;;;9.85;4.15;;;22.80;61.80;;;;;;10417343;28;20033;-58
2021/06/15 06:25:38;;;;;;;7.07;3.33;;;22.80;61.60;;;;;;10417961;28;20482;-58
2021/06/15 06:30:39;;;;;;;6.68;2.97;;;22.80;61.60;;;;;;10414027;28;20029;-53
2021/06/15 06:35:40;;;;;;;5.88;3.13;;;22.80;60.90;;;;;;10395625;28;20033;-57
2021/06/15 06:40:41;;;;;;;5.00;2.40;;;22.80;60.80;;;;;;10392835;28;20438;-58
2021/06/15 06:45:41;;;;;;;6.68;2.58;;;22.80;60.90;;;;;;10414575;28;20116;-57
2021/06/15 06:50:42;;;;;;;2.90;2.05;;;22.80;61.20;;;;;;10414811;28;20045;-57
2021/06/15 06:55:43;;;;;;;4.97;2.80;;;22.80;61.30;;;;;;10415480;28;20065;-57
2021/06/15 07:00:43;;;;;;;5.22;2.92;;;22.80;61.30;;;;;;10414824;28;20041;-57
2021/06/15 07:05:44;;;;;;;6.70;3.30;;;22.80;61.20;;;;;;10415868;28;20112;-57
2021/06/15 07:10:45;;;;;;;4.93;2.25;;;22.80;61.10;;;;;;10415380;28;20037;-57
2021/06/15 07:15:45;;;;;;;8.85;2.42;;;22.90;61.30;;;;;;10415902;28;20039;-57
2021/06/15 07:20:46;;;;;;;6.05;2.35;;;22.90;61.30;;;;;;10415539;28;20419;-57
2021/06/15 07:25:47;;;;;;;4.25;2.10;;;22.80;61.00;;;;;;10415352;28;20105;-57
2021/06/15 07:30:48;;;;;;;3.03;2.05;;;22.90;61.20;;;;;;10414029;28;20026;-57
2021/06/15 07:35:48;;;;;;;5.25;2.25;;;22.90;60.90;;;;;;10414584;28;20347;-58
2021/06/15 07:40:49;;;;;;;10.55;2.35;;;22.90;61.20;;;;;;10413850;28;20030;-58
2021/06/15 07:45:50;;;;;;;5.65;2.53;;;22.90;61.20;;;;;;10422518;28;20052;-58
2021/06/15 07:50:50;;;;;;;6.90;2.53;;;22.90;61.10;;;;;;10413776;28;20044;-57
2021/06/15 07:55:51;;;;;;;4.20;2.47;;;22.90;61.00;;;;;;10413586;28;20108;-57
2021/06/15 08:00:52;;;;;;;4.30;2.03;;;22.90;60.90;;;;;;10413400;28;20090;-57
2021/06/15 08:05:53;;;;;;;6.35;2.58;;;22.90;60.90;;;;;;10414403;28;20121;-56
2021/06/15 08:10:54;;;;;;;3.75;2.13;;;22.90;60.90;;;;;;10412149;28;20037;-58
2021/06/15 08:15:55;;;;;;;3.47;2.15;;;22.90;60.80;;;;;;10413611;28;20022;-58
2021/06/15 08:20:57;;;;;;;3.50;2.00;;;22.90;60.20;;;;;;10411820;28;20041;-58
2021/06/15 08:25:58;;;;;;;4.68;2.40;;;22.90;60.40;;;;;;10410881;28;20490;-59
2021/06/15 08:30:58;;;;;;;4.00;1.33;;;22.90;60.40;;;;;;10412482;28;20088;-60
2021/06/15 08:35:59;;;;;;;3.72;1.60;;;22.90;59.90;;;;;;10413497;28;20100;-60
2021/06/15 08:41:00;;;;;;;4.25;1.95;;;22.90;59.80;;;;;;10413241;28;20634;-59
2021/06/15 08:46:01;;;;;;;2.72;1.55;;;22.90;59.70;;;;;;10424307;28;20156;-60
2021/06/15 08:51:02;;;;;;;3.25;1.75;;;22.90;59.70;;;;;;10418540;28;20038;-59
2021/06/15 08:56:18;;;;;;;3.55;1.75;;;22.90;59.70;;;;;;10421593;28;20052;-59
2021/06/15 09:01:19;;;;;;;7.68;2.38;;;22.90;59.60;;;;;;10420090;28;20381;-59
2021/06/15 09:06:21;;;;;;;2.65;1.60;;;22.90;59.90;;;;;;10419807;28;20120;-59
2021/06/15 09:11:23;;;;;;;3.85;1.20;;;22.90;59.70;;;;;;10420613;28;20171;-59
2021/06/15 09:16:33;;;;;;;2.97;1.48;;;22.90;59.60;;;;;;10421054;28;20033;-60
2021/06/15 09:21:38;;;;;;;2.13;1.42;;;22.90;59.50;;;;;;10419595;28;20021;-60
2021/06/15 09:27:09;;;;;;;8.60;2.10;;;22.90;59.40;;;;;;10419448;28;20080;-60
2021/06/15 09:32:16;;;;;;;4.00;1.30;;;22.90;59.10;;;;;;10419071;28;20034;-59
2021/06/15 09:37:29;;;;;;;2.58;1.42;;;22.90;59.40;;;;;;10419810;28;20034;-60
2021/06/15 09:42:30;;;;;;;2.65;1.52;;;22.90;59.00;;;;;;10426307;28;20034;-60
2021/06/15 09:47:31;;;;;;;3.33;1.45;;;22.90;59.10;;;;;;10419237;28;20486;-60
2021/06/15 09:52:33;;;;;;;3.08;1.42;;;22.90;59.30;;;;;;10414900;28;20029;-61
2021/06/15 09:57:39;;;;;;;4.50;2.50;;;22.90;59.10;;;;;;10418503;28;20021;-60
2021/06/15 10:02:53;;;;;;;3.28;0.95;;;23.00;58.70;;;;;;10418917;28;20025;-59
2021/06/15 10:08:04;;;;;;;2.55;1.40;;;23.00;58.90;;;;;;10418033;28;20033;-59
2021/06/15 10:13:06;;;;;;;3.42;1.13;;;22.90;59.00;;;;;;10418656;28;20384;-60
2021/06/15 10:18:08;;;;;;;4.63;1.35;;;22.90;58.70;;;;;;10417200;28;20375;-60
2021/06/15 10:23:09;;;;;;;4.63;1.40;;;22.90;59.40;;;;;;10418085;28;20035;-60
2021/06/15 10:28:12;;;;;;;3.15;1.65;;;22.90;58.90;;;;;;10418124;28;20029;-59
2021/06/15 10:33:22;;;;;;;2.55;1.85;;;22.90;59.00;;;;;;10416315;28;20045;-60
2021/06/15 10:38:25;;;;;;;1.98;1.50;;;22.90;59.70;;;;;;10417382;28;20393;-59
2021/06/15 10:43:35;;;;;;;5.60;1.38;;;22.90;59.10;;;;;;10423798;28;20037;-60
2021/06/15 10:48:46;;;;;;;3.60;1.38;;;23.00;59.00;;;;;;10415509;28;20103;-60
2021/06/15 10:53:47;;;;;;;2.72;1.60;;;22.90;59.00;;;;;;10416646;28;20124;-59
2021/06/15 10:58:57;;;;;;;2.03;0.95;;;22.90;58.70;;;;;;10416840;28;20386;-60
2021/06/15 11:04:17;;;;;;;2.42;1.08;;;22.90;59.00;;;;;;10416176;28;20601;-60
2021/06/15 11:09:25;;;;;;;1.70;1.10;;;22.90;58.70;;;;;;10414957;28;20040;-60
2021/06/15 11:14:26;;;;;;;1.65;1.30;;;22.90;58.70;;;;;;10414847;28;20473;-60
2021/06/15 11:19:41;;;;;;;2.38;1.20;;;22.90;58.70;;;;;;10413952;28;20474;-60
2021/06/15 11:24:50;;;;;;;2.20;1.20;;;22.90;58.70;;;;;;10416051;28;20045;-60
2021/06/15 11:29:53;;;;;;;2.63;1.05;;;22.90;58.70;;;;;;10415346;28;20462;-60
2021/06/15 11:34:53;;;;;;;1.70;1.05;;;22.90;58.70;;;;;;10413142;28;20079;-60
2021/06/15 11:40:17;;;;;;;1.75;1.10;;;23.00;58.70;;;;;;10415137;28;20082;-60
2021/06/15 11:45:17;;;;;;;4.55;1.38;;;23.00;58.70;;;;;;10417642;28;20394;-60
2021/06/15 11:50:25;;;;;;;1.90;1.13;;;23.00;58.50;;;;;;10414612;28;20087;-60
2021/06/15 11:56:00;;;;;;;3.20;0.93;;;23.00;58.70;;;;;;10414495;28;20029;-61
2021/06/15 12:01:06;;;;;;;2.70;1.42;;;23.00;58.70;;;;;;10412373;28;20041;-60
2021/06/15 12:06:08;;;;;;;5.10;1.88;;;22.90;58.60;;;;;;10414222;28;20034;-60
2021/06/15 12:11:14;;;;;;;2.17;1.20;;;23.00;58.70;;;;;;10414181;28;20067;-60
2021/06/15 12:16:24;;;;;;;1.95;0.98;;;23.00;58.70;;;;;;10411369;28;20026;-60
2021/06/15 12:21:35;;;;;;;3.10;1.05;;;23.00;58.70;;;;;;10413639;28;20037;-61
2021/06/15 12:26:43;;;;;;;1.92;1.13;;;22.90;58.50;;;;;;10413320;28;20037;-59
2021/06/15 12:31:48;;;;;;;1.60;1.27;;;23.00;58.70;;;;;;10411105;28;20022;-61
2021/06/15 12:36:54;;;;;;;2.95;1.40;;;23.00;58.60;;;;;;10411153;28;20385;-60
2021/06/15 12:42:01;;;;;;;3.60;1.00;;;23.00;58.70;;;;;;10413712;28;20037;-60
2021/06/15 12:47:07;;;;;;;3.80;1.50;;;23.00;58.70;;;;;;10412957;28;20277;-60
2021/06/15 12:52:11;;;;;;;2.83;1.58;;;23.00;58.70;;;;;;10413633;28;20030;-60
2021/06/15 12:57:20;;;;;;;5.15;1.25;;;23.00;58.70;;;;;;10413822;28;20108;-60
2021/06/15 13:02:25;;;;;;;2.78;1.20;;;23.00;58.50;;;;;;10411984;28;20116;-60
2021/06/15 13:07:28;;;;;;;1.65;0.90;;;23.00;58.40;;;;;;10412142;28;20382;-60
2021/06/15 13:12:29;;;;;;;5.20;1.48;;;23.00;58.60;;;;;;10412852;28;20605;-60
2021/06/15 13:17:31;;;;;;;2.22;1.10;;;23.00;58.50;;;;;;10413284;28;20095;-60
2021/06/15 13:22:40;;;;;;;3.45;1.02;;;23.00;58.50;;;;;;10410959;28;20099;-59
2021/06/15 13:27:48;;;;;;;2.17;1.00;;;23.00;58.60;;;;;;10413951;28;20048;-61
2021/06/15 13:33:15;;;;;;;2.80;1.33;;;23.00;58.60;;;;;;10416665;28;20025;-58
2021/06/15 13:38:19;;;;;;;2.72;1.08;;;23.00;58.50;;;;;;10417949;28;20470;-59
2021/06/15 13:43:26;;;;;;;3.78;1.10;;;23.00;58.40;;;;;;10426696;28;20033;-57
2021/06/15 13:48:27;;;;;;;2.15;0.98;;;23.00;58.40;;;;;;10419564;28;20046;-58
2021/06/15 13:53:28;;;;;;;3.00;1.30;;;23.00;58.10;;;;;;10418512;28;20037;-58
2021/06/15 13:58:28;;;;;;;5.20;1.20;;;23.00;58.00;;;;;;10419239;28;20094;-57
2021/06/15 14:03:29;;;;;;;7.03;1.52;;;23.00;57.90;;;;;;10418575;28;20120;-58
2021/06/15 14:08:30;;;;;;;3.83;1.30;;;23.10;58.20;;;;;;10418606;28;20061;-58
2021/06/15 14:13:31;;;;;;;5.38;1.85;;;23.10;58.30;;;;;;10418395;28;20482;-57
2021/06/15 14:18:32;;;;;;;7.50;2.63;;;23.00;58.20;;;;;;10418562;28;20100;-57
2021/06/15 14:23:34;;;;;;;5.22;1.23;;;23.00;58.20;;;;;;10418190;28;20485;-57
2021/06/15 14:28:34;;;;;;;4.72;1.33;;;23.00;58.20;;;;;;10417916;28;20444;-57
2021/06/15 14:33:35;;;;;;;3.38;1.40;;;23.00;58.20;;;;;;10417888;28;20061;-57
2021/06/15 14:38:36;;;;;;;4.25;1.70;;;23.00;58.10;;;;;;10414029;28;20030;-57
2021/06/15 14:43:37;;;;;;;6.53;1.42;;;23.10;58.20;;;;;;10416454;28;20029;-58
2021/06/15 14:48:38;;;;;;;3.95;1.30;;;23.10;57.90;;;;;;10415671;28;20080;-60
2021/06/15 14:53:38;;;;;;;3.38;1.48;;;23.10;57.90;;;;;;10414544;28;20029;-57
2021/06/15 14:58:39;;;;;;;4.68;1.33;;;23.10;57.60;;;;;;10415298;28;20108;-59
2021/06/15 15:03:39;;;;;;;2.58;0.90;;;23.00;57.60;;;;;;10416264;28;20140;-57
2021/06/15 15:08:40;;;;;;;2.85;1.30;;;23.10;57.40;;;;;;10415509;28;20072;-59
2021/06/15 15:13:41;;;;;;;5.18;1.40;;;23.00;57.90;;;;;;10416148;28;20107;-60
2021/06/15 15:18:44;;;;;;;4.00;1.30;;;23.10;57.70;;;;;;10414233;28;20051;-60
2021/06/15 15:23:46;;;;;;;2.65;0.93;;;23.00;57.70;;;;;;10415555;28;20068;-60
2021/06/15 15:28:48;;;;;;;3.05;1.27;;;23.10;57.90;;;;;;10414066;28;20036;-59
2021/06/15 15:33:50;;;;;;;1.98;1.13;;;23.10;57.70;;;;;;10410006;28;20116;-60
2021/06/15 15:38:51;;;;;;;2.58;1.00;;;23.10;57.70;;;;;;10413510;28;20029;-59
2021/06/15 15:43:53;;;;;;;5.25;1.58;;;23.10;57.70;;;;;;10414037;28;20397;-60
2021/06/15 15:48:55;;;;;;;2.55;1.10;;;23.10;57.50;;;;;;10414397;28;20063;-59
2021/06/15 15:53:56;;;;;;;3.58;1.10;;;23.10;57.80;;;;;;10418320;28;20029;-60
2021/06/15 15:58:57;;;;;;;2.35;0.70;;;23.10;57.80;;;;;;10410426;28;20033;-59
2021/06/15 16:03:58;;;;;;;19.42;2.38;;;23.10;58.00;;;;;;10419725;28;20067;-59
2021/06/15 16:08:59;;;;;;;13.80;2.28;;;23.10;58.60;;;;;;10411935;28;20037;-58
2021/06/15 16:14:00;;;;;;;28.40;3.65;;;23.10;57.10;;;;;;10413608;28;20057;-57
2021/06/15 16:19:01;;;;;;;20.70;3.20;;;23.10;56.60;;;;;;10409298;28;20038;-57
2021/06/15 16:24:02;;;;;;;16.58;2.38;;;23.10;55.90;;;;;;10413163;28;20034;-57
2021/06/15 16:29:04;;;;;;;12.68;3.30;;;23.20;55.10;;;;;;10413681;28;20033;-57
2021/06/15 16:34:05;;;;;;;32.10;19.63;;;23.10;54.80;;;;;;10413989;28;20501;-57
2021/06/15 16:39:06;;;;;;;9.80;5.72;;;23.20;57.90;;;;;;10413330;28;20060;-56
2021/06/15 16:44:08;;;;;;;13.38;7.45;;;23.20;54.20;;;;;;10420951;28;20034;-57
2021/06/15 16:49:09;;;;;;;8.93;5.93;;;23.10;55.40;;;;;;10413044;28;20049;-57
2021/06/15 16:54:10;;;;;;;8.85;4.28;;;23.20;55.10;;;;;;10411950;28;20509;-58
2021/06/15 16:59:11;;;;;;;7.32;3.50;;;23.20;55.30;;;;;;10412847;28;20084;-57
2021/06/15 17:04:12;;;;;;;9.52;3.08;;;23.20;55.50;;;;;;10416627;28;20069;-58
2021/06/15 17:09:13;;;;;;;6.40;2.70;;;23.10;55.00;;;;;;10419609;28;20111;-58
2021/06/15 17:14:13;;;;;;;7.05;2.60;;;23.20;55.00;;;;;;10420445;28;20447;-57
2021/06/15 17:19:14;;;;;;;5.10;2.67;;;23.10;54.70;;;;;;10419362;28;20061;-57
2021/06/15 17:24:15;;;;;;;7.13;2.30;;;23.20;55.20;;;;;;10419241;28;20523;-57
2021/06/15 17:29:16;;;;;;;5.18;2.15;;;23.20;55.20;;;;;;10420199;28;20121;-57
2021/06/15 17:34:17;;;;;;;5.72;2.33;;;23.10;55.00;;;;;;10419240;28;20030;-57
2021/06/15 17:39:17;;;;;;;5.38;2.00;;;23.10;54.90;;;;;;10419912;28;20076;-58
2021/06/15 17:44:18;;;;;;;9.02;2.92;;;23.20;55.40;;;;;;10416990;28;20128;-59
2021/06/15 17:49:19;;;;;;;7.47;2.78;;;23.20;55.30;;;;;;10413564;28;20130;-58
2021/06/15 17:54:20;;;;;;;6.43;1.90;;;23.20;55.90;;;;;;10416400;28;20029;-58
2021/06/15 17:59:21;;;;;;;7.60;2.35;;;23.20;56.30;;;;;;10414897;28;20067;-58
2021/06/15 18:04:25;;;;;;;7.70;2.55;;;23.20;56.40;;;;;;10410160;28;20428;-58
2021/06/15 18:09:25;;;;;;;5.97;2.05;;;23.20;56.50;;;;;;10403930;28;20151;-56
2021/06/15 18:14:26;;;;;;;6.72;2.40;;;23.20;56.30;;;;;;10410569;28;20039;-57
2021/06/15 18:19:27;;;;;;;5.70;1.95;;;23.20;56.90;;;;;;10409679;28;20043;-58
2021/06/15 18:24:27;;;;;;;5.63;2.22;;;23.20;57.50;;;;;;10408024;28;20113;-60
2021/06/15 18:29:29;;;;;;;6.88;2.85;;;23.20;57.10;;;;;;10409978;28;20440;-56
2021/06/15 18:34:29;;;;;;;5.45;3.28;;;23.30;59.40;;;;;;10409866;28;20029;-55
2021/06/15 18:39:30;;;;;;;14.23;4.55;;;23.30;59.00;;;;;;10409968;28;20043;-57
2021/06/15 18:44:31;;;;;;;5.05;3.08;;;23.30;59.60;;;;;;10412168;28;20482;-56
2021/06/15 18:49:31;;;;;;;9.20;2.33;;;23.30;59.30;;;;;;10408276;28;20425;-56
2021/06/15 18:54:32;;;;;;;6.70;2.15;;;23.30;59.10;;;;;;10408501;28;20528;-55
2021/06/15 18:59:33;;;;;;;5.38;2.35;;;23.30;58.90;;;;;;10409193;28;20037;-59
2021/06/15 19:04:33;;;;;;;3.17;1.90;;;23.30;58.60;;;;;;10410146;28;20021;-57
2021/06/15 19:09:34;;;;;;;4.50;1.88;;;23.30;58.20;;;;;;10409475;28;20108;-57
2021/06/15 19:14:35;;;;;;;7.38;2.05;;;23.30;58.30;;;;;;10410079;28;20130;-57
2021/06/15 19:19:36;;;;;;;7.50;2.75;;;23.30;58.90;;;;;;10407978;28;20533;-56
2021/06/15 19:24:37;;;;;;;6.05;2.28;;;23.30;58.10;;;;;;10408731;28;20224;-57
2021/06/15 19:29:37;;;;;;;5.90;2.03;;;23.30;58.10;;;;;;10406573;28;20116;-56
2021/06/15 19:34:38;;;;;;;3.97;2.00;;;23.30;58.40;;;;;;10405456;28;20180;-58
2021/06/15 19:39:38;;;;;;;9.85;2.47;;;23.30;58.00;;;;;;10410448;28;20113;-59
2021/06/15 19:44:39;;;;;;;6.93;2.55;;;23.30;58.30;;;;;;10421626;28;20526;-58
2021/06/15 19:49:40;;;;;;;3.38;1.80;;;23.20;57.80;;;;;;10414269;28;20026;-58
2021/06/15 19:54:40;;;;;;;7.93;2.47;;;23.30;57.80;;;;;;10414416;28;21310;-58
2021/06/15 19:59:41;;;;;;;5.93;2.03;;;23.30;57.90;;;;;;10411253;28;20498;-57
2021/06/15 20:04:42;;;;;;;6.18;1.83;;;23.30;57.90;;;;;;10414783;28;20079;-57
2021/06/15 20:09:43;;;;;;;7.03;2.00;;;23.30;57.50;;;;;;10414406;28;20474;-58
2021/06/15 20:14:43;;;;;;;5.20;2.10;;;23.30;57.50;;;;;;10414583;28;20029;-57
2021/06/15 20:19:44;;;;;;;8.82;2.58;;;23.30;57.40;;;;;;10413673;28;20025;-62
2021/06/15 20:24:45;;;;;;;6.45;2.30;;;23.30;57.90;;;;;;10413691;28;20022;-61
2021/06/15 20:29:46;;;;;;;6.30;1.50;;;23.30;57.90;;;;;;10412475;28;20409;-59
2021/06/15 20:34:46;;;;;;;4.82;2.08;;;23.30;57.90;;;;;;10413609;28;20552;-59
2021/06/15 20:39:47;;;;;;;9.38;2.22;;;23.30;57.90;;;;;;10418681;28;20033;-59
2021/06/15 20:44:48;;;;;;;2.63;1.70;;;23.20;57.80;;;;;;10428997;28;20442;-59
2021/06/15 20:49:48;;;;;;;4.55;2.05;;;23.30;57.90;;;;;;10422058;28;20433;-59
2021/06/15 20:54:53;;;;;;;4.18;1.90;;;23.20;57.90;;;;;;10421840;28;20453;-59
2021/06/15 20:59:54;;;;;;;6.78;2.28;;;23.20;57.90;;;;;;10421159;28;20095;-59
2021/06/15 21:04:54;;;;;;;5.90;2.33;;;23.20;57.80;;;;;;10420980;28;20060;-61
2021/06/15 21:09:55;;;;;;;5.22;2.35;;;23.20;57.80;;;;;;10420922;28;20026;-59
2021/06/15 21:14:56;;;;;;;2.15;1.30;;;23.20;57.90;;;;;;10421322;28;20128;-59
2021/06/15 21:19:57;;;;;;;5.18;2.38;;;23.20;57.90;;;;;;10420855;28;20120;-59
2021/06/15 21:24:57;;;;;;;3.03;1.42;;;23.20;57.90;;;;;;10420874;28;20055;-58
2021/06/15 21:29:58;;;;;;;4.63;2.08;;;23.20;57.90;;;;;;10420381;28;20216;-59
2021/06/15 21:34:59;;;;;;;6.78;2.03;;;23.20;57.90;;;;;;10419268;28;20109;-58
2021/06/15 21:39:59;;;;;;;2.53;1.70;;;23.20;57.90;;;;;;10420060;28;20037;-59
2021/06/15 21:45:00;;;;;;;3.30;1.70;;;23.20;57.90;;;;;;10427004;28;20076;-59
2021/06/15 21:50:03;;;;;;;5.43;2.50;;;23.20;57.90;;;;;;10419349;28;20033;-59
2021/06/15 21:55:05;;;;;;;3.15;1.60;;;23.20;57.90;;;;;;10419895;28;20385;-58
2021/06/15 22:00:16;;;;;;;6.43;2.50;;;23.20;57.90;;;;;;10407401;28;20037;-59
2021/06/15 22:05:16;;;;;;;3.67;1.85;;;23.10;57.90;;;;;;10418298;28;20022;-59
2021/06/15 22:10:17;;;;;;;4.43;1.85;;;23.20;58.00;;;;;;10418950;28;20439;-59
2021/06/15 22:15:20;;;;;;;5.05;1.60;;;23.10;57.90;;;;;;10419201;28;20039;-59
2021/06/15 22:20:24;;;;;;;5.35;2.15;;;23.20;57.90;;;;;;10418644;28;20029;-59
2021/06/15 22:25:30;;;;;;;4.80;1.70;;;23.10;57.90;;;;;;10417513;28;20500;-59
2021/06/15 22:30:31;;;;;;;2.35;1.70;;;23.20;58.00;;;;;;10405313;28;20122;-59
2021/06/15 22:35:33;;;;;;;4.88;2.25;;;23.10;57.90;;;;;;10404855;28;20045;-59
2021/06/15 22:40:36;;;;;;;4.75;1.65;;;23.10;57.90;;;;;;10417991;28;20045;-58
2021/06/15 22:45:37;;;;;;;3.08;1.75;;;23.10;57.80;;;;;;10424592;28;20060;-59
2021/06/15 22:50:38;;;;;;;2.78;1.88;;;23.10;57.90;;;;;;10417241;28;20037;-59
2021/06/15 22:55:39;;;;;;;4.63;1.63;;;23.10;57.90;;;;;;10417218;28;20104;-59
2021/06/15 23:00:40;;;;;;;3.47;2.17;;;23.10;57.90;;;;;;10416146;28;20465;-59
2021/06/15 23:05:43;;;;;;;3.15;1.52;;;23.10;57.90;;;;;;10416866;28;20053;-59
2021/06/15 23:10:44;;;;;;;2.22;1.38;;;23.10;57.90;;;;;;10416427;28;20112;-59
2021/06/15 23:15:45;;;;;;;4.95;2.05;;;23.10;57.90;;;;;;10416422;28;20044;-59
2021/06/15 23:20:46;;;;;;;3.08;1.75;;;23.10;57.90;;;;;;10405900;28;20493;-58
2021/06/15 23:25:47;;;;;;;4.43;1.80;;;23.10;57.80;;;;;;10416183;28;20544;-59
2021/06/15 23:30:49;;;;;;;2.80;1.55;;;23.10;57.90;;;;;;10415864;28;20087;-59
2021/06/15 23:35:50;;;;;;;2.65;1.50;;;23.10;57.90;;;;;;10402428;28;20066;-59
2021/06/15 23:40:50;;;;;;;4.10;1.90;;;23.10;57.90;;;;;;10415837;28;20025;-59
2021/06/15 23:45:51;;;;;;;4.78;1.70;;;23.00;57.80;;;;;;10421352;28;20128;-59
2021/06/15 23:50:52;;;;;;;3.42;2.05;;;23.10;57.90;;;;;;10414970;28;20048;-59
2021/06/15 23:55:52;;;;;;;3.67;1.70;;;23.10;57.90;;;;;;10413833;28;20025;-59
